Time;durP1;ratioP1;P1;durP2;ratioP2;P2;SDS_P1;SDS_P2;PMS_P1;PMS_P2;Temp;Humidity;BMP_temperature;BMP_pressure;BME280_temperature;BME280_humidity;BME280_pressure;Samples;Min_cycle;Max_cycle;Signal;HPM_P1;HPM_P2
2021/03/05 00:02:48;;;;;;;;;76.75;62.00;;;;;;;;12030077;29;9640;-53
2021/03/05 00:09:04;;;;;;;;;77.50;60.75;;;;;;;;12024898;29;8889;-54
2021/03/05 00:15:08;;;;;;;;;77.50;62.00;;;;;;;;12026327;29;8888;-54
2021/03/05 00:21:09;;;;;;;;;79.50;60.50;;;;;;;;12028818;29;8889;-52
2021/03/05 00:27:11;;;;;;;;;76.00;60.75;;;;;;;;12027516;29;8892;-55
2021/03/05 00:33:12;;;;;;;;;75.00;59.25;;;;;;;;12036311;29;8882;-52
2021/03/05 00:39:29;;;;;;;;;75.25;60.50;;;;;;;;12024227;29;9017;-55
2021/03/05 00:45:31;;;;;;;;;80.00;61.00;;;;;;;;12034668;29;8862;-53
2021/03/05 00:51:32;;;;;;;;;83.50;65.75;;;;;;;;12017692;29;8877;-53
2021/03/05 00:57:35;;;;;;;;;72.75;59.25;;;;;;;;12017886;29;8913;-54
2021/03/05 01:03:36;;;;;;;;;77.00;60.75;;;;;;;;12037659;29;8874;-53
2021/03/05 01:09:53;;;;;;;;;72.25;60.25;;;;;;;;12029416;29;8877;-52
2021/03/05 01:15:54;;;;;;;;;75.75;62.00;;;;;;;;12019215;29;8905;-51
2021/03/05 01:21:55;;;;;;;;;76.50;61.00;;;;;;;;12030380;29;8874;-52
2021/03/05 01:27:57;;;;;;;;;76.75;62.00;;;;;;;;12036148;29;8874;-52
2021/03/05 01:33:59;;;;;;;;;83.33;65.33;;;;;;;;12029244;29;8885;-54
2021/03/05 01:40:13;;;;;;;;;78.00;61.00;;;;;;;;12034230;29;8878;-50
2021/03/05 01:46:18;;;;;;;;;79.50;64.25;;;;;;;;12027675;29;8861;-52
2021/03/05 01:52:19;;;;;;;;;81.75;65.75;;;;;;;;12028604;29;8896;-53
2021/03/05 01:58:23;;;;;;;;;81.00;64.50;;;;;;;;12029075;29;8884;-52
2021/03/05 02:04:25;;;;;;;;;87.75;67.25;;;;;;;;12033280;29;9007;-52
2021/03/05 02:10:34;;;;;;;;;81.00;65.33;;;;;;;;12030271;29;8897;-52
2021/03/05 02:16:48;;;;;;;;;75.00;61.67;;;;;;;;12035209;29;8898;-52
2021/03/05 02:23:18;;;;;;;;;90.33;71.00;;;;;;;;12029092;29;8857;-52
2021/03/05 02:29:22;;;;;;;;;90.67;70.67;;;;;;;;12029863;29;8879;-53
2021/03/05 02:35:30;;;;;;;;;96.67;74.00;;;;;;;;12029935;29;8894;-53
2021/03/05 02:41:35;;;;;;;;;73.33;62.33;;;;;;;;12025794;29;8885;-52
2021/03/05 02:47:39;;;;;;;;;101.00;83.33;;;;;;;;12034073;29;8874;-52
2021/03/05 02:53:42;;;;;;;;;100.00;78.00;;;;;;;;12027837;29;8869;-52
2021/03/05 02:59:45;;;;;;;;;100.33;83.67;;;;;;;;12031261;29;8866;-53
2021/03/05 03:05:50;;;;;;;;;101.33;76.00;;;;;;;;12029026;29;8965;-52
2021/03/05 03:11:51;;;;;;;;;103.00;81.00;;;;;;;;12024263;29;9641;-50
2021/03/05 03:17:55;;;;;;;;;111.00;89.67;;;;;;;;12032729;29;8900;-51
2021/03/05 03:23:57;;;;;;;;;105.67;86.33;;;;;;;;12024752;29;8869;-52
2021/03/05 03:29:59;;;;;;;;;106.33;88.33;;;;;;;;12031599;29;8892;-52
2021/03/05 03:36:03;;;;;;;;;110.00;91.00;;;;;;;;12026356;29;8912;-52
2021/03/05 03:42:05;;;;;;;;;106.00;88.67;;;;;;;;12030586;29;8866;-53
2021/03/05 03:48:08;;;;;;;;;106.67;83.00;;;;;;;;12028028;29;8869;-53
2021/03/05 03:54:15;;;;;;;;;108.67;89.33;;;;;;;;12030392;29;8890;-56
2021/03/05 04:00:17;;;;;;;;;108.67;90.00;;;;;;;;12025043;29;8874;-51
2021/03/05 04:06:25;;;;;;;;;111.67;91.00;;;;;;;;12027947;29;9685;-53
2021/03/05 04:12:28;;;;;;;;;103.50;81.75;;;;;;;;12035443;29;8870;-55
2021/03/05 04:18:32;;;;;;;;;107.00;90.50;;;;;;;;12036632;29;8912;-52
2021/03/05 04:24:33;;;;;;;;;108.50;90.50;;;;;;;;12032225;29;8896;-58
2021/03/05 04:30:34;;;;;;;;;110.50;92.50;;;;;;;;12040115;29;8903;-51
2021/03/05 04:36:36;;;;;;;;;108.00;86.00;;;;;;;;12035615;29;8878;-51
2021/03/05 04:42:40;;;;;;;;;107.33;89.67;;;;;;;;12035889;29;8863;-54
2021/03/05 04:48:41;;;;;;;;;116.75;96.50;;;;;;;;12037222;29;8874;-54
2021/03/05 04:54:43;;;;;;;;;104.67;82.33;;;;;;;;12030718;29;9001;-53
2021/03/05 05:07:22;;;;;;;;;99.00;77.67;;;;;;;;12190937;23;8909;-48
2021/03/05 05:13:23;;;;;;;;;101.33;77.33;;;;;;;;12031297;29;8911;-49
2021/03/05 05:19:26;;;;;;;;;102.00;80.67;;;;;;;;12030893;29;8889;-46
2021/03/05 05:25:27;;;;;;;;;100.67;78.00;;;;;;;;12038922;29;8899;-48
2021/03/05 05:31:30;;;;;;;;;99.67;80.67;;;;;;;;12030154;29;8924;-47
2021/03/05 05:37:31;;;;;;;;;99.33;75.33;;;;;;;;12031633;29;8892;-51
2021/03/05 05:43:33;;;;;;;;;96.67;75.33;;;;;;;;12035589;29;8900;-50
2021/03/05 05:49:36;;;;;;;;;102.00;80.00;;;;;;;;12035839;29;8887;-48
2021/03/05 05:55:38;;;;;;;;;93.00;74.00;;;;;;;;12031583;29;8879;-50
2021/03/05 06:01:40;;;;;;;;;100.00;77.67;;;;;;;;12031734;29;9750;-48
2021/03/05 06:07:43;;;;;;;;;96.67;74.00;;;;;;;;12037961;29;8928;-48
2021/03/05 06:13:44;;;;;;;;;90.00;73.00;;;;;;;;12035337;29;8901;-53
2021/03/05 06:19:54;;;;;;;;;92.33;72.67;;;;;;;;12032102;29;8881;-50
2021/03/05 06:26:00;;;;;;;;;94.33;72.00;;;;;;;;12035858;29;8886;-52
2021/03/05 06:32:02;;;;;;;;;98.67;77.67;;;;;;;;12029930;29;8937;-53
2021/03/05 06:38:05;;;;;;;;;91.33;71.67;;;;;;;;12034602;29;8996;-51
2021/03/05 06:44:06;;;;;;;;;92.67;73.33;;;;;;;;12019404;29;8888;-50
2021/03/05 06:50:26;;;;;;;;;98.67;74.67;;;;;;;;12031807;29;8878;-53
2021/03/05 06:56:31;;;;;;;;;92.33;71.33;;;;;;;;12029302;29;8997;-51
2021/03/05 07:02:34;;;;;;;;;86.00;66.33;;;;;;;;12034628;29;9163;-49
2021/03/05 07:08:42;;;;;;;;;79.67;65.00;;;;;;;;12026211;29;8928;-52
2021/03/05 07:14:49;;;;;;;;;84.67;67.33;;;;;;;;12034407;29;8932;-51
2021/03/05 07:20:51;;;;;;;;;78.00;60.50;;;;;;;;12023193;29;8892;-47
2021/03/05 07:26:56;;;;;;;;;90.00;70.67;;;;;;;;12023137;29;8912;-52
2021/03/05 07:33:00;;;;;;;;;91.00;71.67;;;;;;;;12028490;29;8871;-52
2021/03/05 07:39:04;;;;;;;;;82.75;66.50;;;;;;;;12036112;29;8888;-52
2021/03/05 07:45:08;;;;;;;;;89.75;69.00;;;;;;;;12037982;29;8871;-53
2021/03/05 07:51:09;;;;;;;;;88.75;68.50;;;;;;;;12049244;29;8890;-47
2021/03/05 07:57:14;;;;;;;;;86.25;69.25;;;;;;;;12032915;29;8874;-47
2021/03/05 08:03:18;;;;;;;;;79.25;63.25;;;;;;;;12038965;29;8956;-49
2021/03/05 08:09:19;;;;;;;;;83.00;66.00;;;;;;;;12038170;29;8877;-49
2021/03/05 08:15:21;;;;;;;;;81.50;64.50;;;;;;;;12029841;29;9773;-49
2021/03/05 08:21:52;;;;;;;;;72.25;59.00;;;;;;;;12047904;29;8862;-49
2021/03/05 08:27:54;;;;;;;;;73.75;58.50;;;;;;;;12033263;29;8875;-52
2021/03/05 08:34:38;;;;;;;;;77.75;62.25;;;;;;;;12053092;29;8871;-49
2021/03/05 08:40:51;;;;;;;;;73.00;59.00;;;;;;;;12037239;29;8877;-50
2021/03/05 08:47:05;;;;;;;;;62.75;49.75;;;;;;;;12045398;29;9040;-48
2021/03/05 08:53:12;;;;;;;;;68.75;55.50;;;;;;;;12063107;29;8897;-54
2021/03/05 08:59:13;;;;;;;;;80.50;62.75;;;;;;;;12044963;29;9557;-52
2021/03/05 09:05:26;;;;;;;;;68.00;55.00;;;;;;;;12043816;29;8878;-48
2021/03/05 09:11:28;;;;;;;;;75.50;60.00;;;;;;;;12034977;29;8874;-54
2021/03/05 09:17:30;;;;;;;;;65.75;54.25;;;;;;;;12033871;29;8871;-48
2021/03/05 09:23:37;;;;;;;;;61.75;49.50;;;;;;;;12039029;29;8862;-48
2021/03/05 09:29:38;;;;;;;;;65.75;53.00;;;;;;;;12035239;29;8939;-49
2021/03/05 09:35:41;;;;;;;;;69.00;57.00;;;;;;;;12049004;29;8890;-50
2021/03/05 09:41:46;;;;;;;;;69.25;55.75;;;;;;;;12036999;29;8886;-47
2021/03/05 09:47:49;;;;;;;;;63.00;50.25;;;;;;;;12048569;29;8938;-49
2021/03/05 09:53:57;;;;;;;;;66.25;53.25;;;;;;;;12030963;29;8918;-52
2021/03/05 09:59:59;;;;;;;;;66.75;53.75;;;;;;;;12032669;29;8876;-46
2021/03/05 10:06:01;;;;;;;;;61.75;51.00;;;;;;;;12031424;29;8925;-50
2021/03/05 10:12:03;;;;;;;;;65.00;51.25;;;;;;;;12034839;29;9694;-49
2021/03/05 10:18:05;;;;;;;;;63.75;51.00;;;;;;;;12027537;29;8917;-51
2021/03/05 10:24:09;;;;;;;;;44.25;38.00;;;;;;;;12033508;29;8920;-50
2021/03/05 10:30:11;;;;;;;;;66.25;53.25;;;;;;;;12034071;29;8883;-49
2021/03/05 10:36:14;;;;;;;;;66.50;52.00;;;;;;;;12036359;29;8906;-50
2021/03/05 10:42:20;;;;;;;;;64.00;51.50;;;;;;;;12032686;29;9322;-51
2021/03/05 10:48:21;;;;;;;;;62.50;50.25;;;;;;;;12035750;29;8925;-46
2021/03/05 10:54:23;;;;;;;;;54.25;44.75;;;;;;;;12026235;29;8873;-50
2021/03/05 11:00:26;;;;;;;;;50.75;44.00;;;;;;;;12037331;29;8885;-49
2021/03/05 11:06:27;;;;;;;;;53.00;44.00;;;;;;;;12042667;29;8877;-52
2021/03/05 11:12:30;;;;;;;;;38.00;31.00;;;;;;;;12030210;29;8892;-51
2021/03/05 11:18:31;;;;;;;;;53.25;42.00;;;;;;;;12042243;29;9693;-51
2021/03/05 11:24:32;;;;;;;;;50.25;40.00;;;;;;;;12029707;29;8890;-51
2021/03/05 11:30:35;;;;;;;;;42.00;37.67;;;;;;;;12032253;29;9654;-53
2021/03/05 11:36:37;;;;;;;;;30.00;30.00;;;;;;;;12034867;29;8858;-51
2021/03/05 11:42:38;;;;;;;;;31.00;29.67;;;;;;;;12034580;29;8876;-48
2021/03/05 11:48:40;;;;;;;;;35.00;29.67;;;;;;;;12020837;29;8980;-49
2021/03/05 11:54:42;;;;;;;;;30.33;29.67;;;;;;;;12029465;29;8900;-53
2021/03/05 12:00:43;;;;;;;;;42.00;36.00;;;;;;;;12034041;29;9654;-53
2021/03/05 12:06:45;;;;;;;;;33.33;33.00;;;;;;;;12039152;29;9644;-50
2021/03/05 12:12:47;;;;;;;;;35.33;32.67;;;;;;;;12035616;29;8881;-52
2021/03/05 12:18:48;;;;;;;;;38.33;36.00;;;;;;;;12035126;29;8889;-52
2021/03/05 12:24:50;;;;;;;;;39.33;36.67;;;;;;;;12037709;29;8881;-52
2021/03/05 12:30:52;;;;;;;;;49.33;42.33;;;;;;;;12034914;29;8904;-52
2021/03/05 12:36:54;;;;;;;;;39.33;39.00;;;;;;;;12026262;29;8908;-49
2021/03/05 12:42:56;;;;;;;;;44.00;40.67;;;;;;;;12047631;29;8884;-52
2021/03/05 12:48:58;;;;;;;;;56.33;44.00;;;;;;;;12041600;29;8881;-49
2021/03/05 12:55:00;;;;;;;;;37.33;34.00;;;;;;;;12038896;29;9687;-46
2021/03/05 13:01:03;;;;;;;;;44.67;38.67;;;;;;;;12041701;29;8882;-56
2021/03/05 13:07:05;;;;;;;;;47.33;39.67;;;;;;;;12050929;29;8976;-48
2021/03/05 13:13:07;;;;;;;;;38.67;36.67;;;;;;;;12050151;29;8906;-49
2021/03/05 13:19:08;;;;;;;;;53.25;46.00;;;;;;;;12041578;29;8885;-51
2021/03/05 13:25:13;;;;;;;;;46.00;40.33;;;;;;;;12043560;29;8857;-50
2021/03/05 13:31:14;;;;;;;;;41.50;37.75;;;;;;;;12038840;29;8907;-52
2021/03/05 13:37:16;;;;;;;;;45.67;37.67;;;;;;;;12030541;29;8987;-53
2021/03/05 13:43:18;;;;;;;;;43.33;37.67;;;;;;;;12040315;29;9435;-49
2021/03/05 13:49:25;;;;;;;;;37.00;35.00;;;;;;;;12041023;29;8992;-52
2021/03/05 13:55:26;;;;;;;;;40.33;37.00;;;;;;;;12047224;29;8962;-47
2021/03/05 14:01:29;;;;;;;;;37.00;35.00;;;;;;;;12018528;29;8894;-49
2021/03/05 14:07:30;;;;;;;;;34.33;34.00;;;;;;;;12034706;29;8924;-48
2021/03/05 14:13:32;;;;;;;;;40.00;33.67;;;;;;;;12051279;29;9745;-50
2021/03/05 14:19:47;;;;;;;;;45.00;38.67;;;;;;;;12040202;29;8897;-47
2021/03/05 14:25:50;;;;;;;;;38.33;35.00;;;;;;;;12042897;29;8878;-49
2021/03/05 14:31:52;;;;;;;;;35.00;34.67;;;;;;;;12029956;29;8874;-49
2021/03/05 14:37:53;;;;;;;;;46.33;37.00;;;;;;;;12037295;29;8882;-49
2021/03/05 14:43:55;;;;;;;;;43.00;37.33;;;;;;;;12038158;29;8908;-49
2021/03/05 14:50:09;;;;;;;;;39.33;34.67;;;;;;;;12033294;29;8889;-48
2021/03/05 14:56:11;;;;;;;;;33.00;32.33;;;;;;;;12032462;29;9005;-49
2021/03/05 15:02:12;;;;;;;;;41.67;36.00;;;;;;;;12032139;29;8878;-50
2021/03/05 15:08:15;;;;;;;;;35.33;33.67;;;;;;;;12022449;29;8948;-52
2021/03/05 15:14:16;;;;;;;;;37.75;36.00;;;;;;;;12039098;29;8966;-50
2021/03/05 15:20:32;;;;;;;;;39.50;36.75;;;;;;;;12045489;29;9686;-47
2021/03/05 15:26:34;;;;;;;;;33.75;32.75;;;;;;;;12031044;29;8912;-50
2021/03/05 15:32:37;;;;;;;;;39.50;35.75;;;;;;;;12022608;29;8985;-51
2021/03/05 15:38:40;;;;;;;;;32.00;27.50;;;;;;;;12016633;29;8877;-50
2021/03/05 15:44:41;;;;;;;;;33.50;31.25;;;;;;;;12010966;29;8885;-50
2021/03/05 15:50:57;;;;;;;;;34.00;31.00;;;;;;;;12030362;29;8866;-53
2021/03/05 15:56:59;;;;;;;;;24.75;24.75;;;;;;;;12030442;29;8893;-49
2021/03/05 16:03:02;;;;;;;;;36.25;32.50;;;;;;;;12037027;29;8873;-57
2021/03/05 16:09:04;;;;;;;;;37.25;32.75;;;;;;;;12036667;29;8901;-53
2021/03/05 16:15:07;;;;;;;;;33.25;31.25;;;;;;;;12052179;29;9693;-53
2021/03/05 16:21:20;;;;;;;;;38.25;35.25;;;;;;;;12038091;29;8871;-49
2021/03/05 16:27:22;;;;;;;;;40.25;34.25;;;;;;;;12042690;29;8913;-54
2021/03/05 16:33:23;;;;;;;;;31.00;30.00;;;;;;;;12030601;29;8865;-51
2021/03/05 16:39:26;;;;;;;;;34.25;33.00;;;;;;;;12039034;29;9727;-51
2021/03/05 16:45:27;;;;;;;;;36.00;34.50;;;;;;;;12036867;29;8871;-51
2021/03/05 16:51:44;;;;;;;;;34.50;30.25;;;;;;;;12030444;29;9055;-54
2021/03/05 16:57:46;;;;;;;;;43.50;37.00;;;;;;;;12038727;29;8896;-54
2021/03/05 17:03:48;;;;;;;;;34.75;32.25;;;;;;;;12029842;29;9685;-49
2021/03/05 17:09:49;;;;;;;;;35.50;34.25;;;;;;;;12035500;29;9156;-49
2021/03/05 17:15:51;;;;;;;;;47.50;40.00;;;;;;;;12033469;29;8882;-47
2021/03/05 17:22:03;;;;;;;;;44.75;40.00;;;;;;;;12031768;29;8881;-51
2021/03/05 17:28:05;;;;;;;;;52.00;43.50;;;;;;;;12039898;29;8889;-49
2021/03/05 17:34:07;;;;;;;;;51.50;43.00;;;;;;;;12032085;29;9335;-50
2021/03/05 17:40:09;;;;;;;;;33.25;28.50;;;;;;;;12036862;29;8863;-51
2021/03/05 17:46:10;;;;;;;;;50.25;42.50;;;;;;;;12031157;29;8890;-51
2021/03/05 17:52:25;;;;;;;;;47.25;38.75;;;;;;;;12029170;29;8881;-50
2021/03/05 17:58:26;;;;;;;;;43.75;37.75;;;;;;;;12038287;29;9666;-47
2021/03/05 18:04:28;;;;;;;;;39.25;38.00;;;;;;;;12032422;29;8908;-48
2021/03/05 18:10:29;;;;;;;;;37.00;36.75;;;;;;;;12030021;29;8877;-49
2021/03/05 18:16:31;;;;;;;;;45.50;37.50;;;;;;;;12035496;29;8960;-48
2021/03/05 18:22:50;;;;;;;;;46.00;41.50;;;;;;;;12034883;29;8885;-54
2021/03/05 18:29:05;;;;;;;;;41.50;38.50;;;;;;;;12033982;29;8870;-48
2021/03/05 18:35:10;;;;;;;;;34.00;29.75;;;;;;;;12027253;29;9019;-51
2021/03/05 18:41:11;;;;;;;;;36.75;36.50;;;;;;;;12036820;29;8865;-50
2021/03/05 18:47:13;;;;;;;;;42.00;40.00;;;;;;;;12007390;29;8861;-50
2021/03/05 18:53:14;;;;;;;;;39.25;34.25;;;;;;;;12031280;29;8974;-50
2021/03/05 18:59:16;;;;;;;;;43.50;36.75;;;;;;;;12031455;29;8912;-52
2021/03/05 19:05:19;;;;;;;;;30.25;28.75;;;;;;;;12017200;29;9281;-48
2021/03/05 19:11:20;;;;;;;;;42.25;38.25;;;;;;;;12027743;29;8859;-49
2021/03/05 19:17:21;;;;;;;;;46.50;39.25;;;;;;;;12005082;29;8984;-51
2021/03/05 19:23:33;;;;;;;;;49.00;39.00;;;;;;;;12007644;29;8877;-52
2021/03/05 19:29:36;;;;;;;;;45.00;37.75;;;;;;;;12016631;29;8894;-51
2021/03/05 19:35:38;;;;;;;;;49.50;40.50;;;;;;;;12032948;29;8909;-51
2021/03/05 19:41:39;;;;;;;;;37.50;36.25;;;;;;;;12026315;29;8877;-53
2021/03/05 19:47:41;;;;;;;;;44.00;37.75;;;;;;;;12030517;29;8888;-52
2021/03/05 19:53:56;;;;;;;;;46.50;39.00;;;;;;;;12026682;29;8850;-49
2021/03/05 19:59:57;;;;;;;;;41.25;38.75;;;;;;;;12012309;29;8903;-48
2021/03/05 20:05:59;;;;;;;;;45.00;40.25;;;;;;;;12031802;29;8896;-45
2021/03/05 20:12:01;;;;;;;;;33.00;32.50;;;;;;;;12027940;29;9575;-51
2021/03/05 20:18:21;;;;;;;;;47.75;41.75;;;;;;;;12031709;29;9435;-47
2021/03/05 20:24:42;;;;;;;;;51.00;41.75;;;;;;;;12023786;29;9643;-51
2021/03/05 20:30:43;;;;;;;;;53.25;45.50;;;;;;;;12031096;29;8889;-49
2021/03/05 20:36:45;;;;;;;;;47.75;42.50;;;;;;;;12026865;29;8881;-49
2021/03/05 20:42:47;;;;;;;;;55.75;46.25;;;;;;;;12030437;29;8867;-49
2021/03/05 20:48:48;;;;;;;;;50.75;43.50;;;;;;;;12026918;29;8862;-49
2021/03/05 20:54:50;;;;;;;;;49.25;42.00;;;;;;;;12037314;29;8972;-49
2021/03/05 21:00:52;;;;;;;;;50.75;44.50;;;;;;;;12034554;29;8985;-49
2021/03/05 21:06:55;;;;;;;;;51.50;43.25;;;;;;;;12035164;29;8918;-50
2021/03/05 21:12:57;;;;;;;;;56.50;45.25;;;;;;;;12033605;29;8972;-47
2021/03/05 21:18:58;;;;;;;;;51.75;43.50;;;;;;;;12038153;29;8950;-50
2021/03/05 21:25:05;;;;;;;;;52.00;45.50;;;;;;;;12034978;29;8882;-47
2021/03/05 21:31:07;;;;;;;;;53.75;45.25;;;;;;;;12035537;29;8950;-52
2021/03/05 21:37:08;;;;;;;;;59.75;49.50;;;;;;;;12032879;29;8878;-47
2021/03/05 21:43:10;;;;;;;;;58.25;48.50;;;;;;;;12032090;29;9494;-49
2021/03/05 21:49:13;;;;;;;;;56.00;48.25;;;;;;;;12036755;29;8971;-47
2021/03/05 21:55:28;;;;;;;;;51.50;43.25;;;;;;;;12031304;29;9028;-49
2021/03/05 22:01:33;;;;;;;;;61.25;48.75;;;;;;;;12035826;29;8878;-50
2021/03/05 22:07:35;;;;;;;;;64.25;51.00;;;;;;;;12030271;29;8917;-47
2021/03/05 22:13:36;;;;;;;;;63.00;49.00;;;;;;;;12029254;29;8869;-49
2021/03/05 22:19:37;;;;;;;;;61.75;50.00;;;;;;;;12035567;29;8916;-47
2021/03/05 22:25:49;;;;;;;;;62.00;49.75;;;;;;;;12037716;29;8985;-49
2021/03/05 22:31:53;;;;;;;;;65.25;52.00;;;;;;;;12011626;29;8870;-47
2021/03/05 22:37:55;;;;;;;;;59.75;48.75;;;;;;;;12037574;29;8936;-49
2021/03/05 22:43:56;;;;;;;;;58.75;48.00;;;;;;;;12029979;29;8885;-50
2021/03/05 22:49:58;;;;;;;;;62.00;50.75;;;;;;;;12031740;29;9679;-47
2021/03/05 22:56:11;;;;;;;;;60.25;49.00;;;;;;;;12027694;29;8887;-48
2021/03/05 23:02:13;;;;;;;;;61.50;51.25;;;;;;;;12016932;29;8923;-49
2021/03/05 23:08:15;;;;;;;;;61.75;49.75;;;;;;;;12032055;29;9624;-48
2021/03/05 23:14:16;;;;;;;;;56.50;48.00;;;;;;;;12029865;29;8905;-47
2021/03/05 23:20:23;;;;;;;;;49.00;40.25;;;;;;;;12028299;29;8874;-49
2021/03/05 23:26:33;;;;;;;;;60.50;49.50;;;;;;;;12007743;29;8910;-49
2021/03/05 23:32:38;;;;;;;;;62.50;49.00;;;;;;;;12015061;29;8893;-48
2021/03/05 23:38:39;;;;;;;;;60.50;49.75;;;;;;;;12028852;29;8883;-49
2021/03/05 23:44:41;;;;;;;;;59.00;50.00;;;;;;;;12031552;29;8875;-47
2021/03/05 23:50:45;;;;;;;;;60.25;50.50;;;;;;;;12028686;29;8873;-49
2021/03/05 23:57:03;;;;;;;;;62.75;51.00;;;;;;;;12025465;29;8862;-47
